createdAt,value
2022-10-07T06:51:41.814Z,97414.84
2022-10-07T06:52:43.894Z,97429.22
2022-10-07T06:53:45.543Z,97419.72
2022-10-07T06:54:46.952Z,97427.63
2022-10-07T06:55:51.632Z,97422.09
2022-10-07T06:56:52.940Z,97430.22
2022-10-07T07:10:49.984Z,97424.13
2022-10-07T07:11:54.245Z,97430.94
2022-10-07T07:12:57.722Z,97433.06
2022-10-07T07:19:07.104Z,97428.22
2022-10-07T07:20:08.837Z,97436.97
2022-10-07T07:21:11.177Z,97423.72
2022-10-07T07:22:12.590Z,97431.78
2022-10-07T07:23:13.982Z,97427.41
2022-10-07T07:24:15.363Z,97423.56
2022-10-07T07:25:16.832Z,97424.75
2022-10-07T07:26:18.359Z,97427.09
2022-10-07T07:27:19.780Z,97418.00
2022-10-07T07:28:21.161Z,97421.31
2022-10-07T07:29:22.567Z,97421.50
2022-10-07T07:30:24.880Z,97406.59
2022-10-07T07:31:28.802Z,97417.19
2022-10-07T07:32:30.167Z,97420.69
2022-10-07T07:33:31.493Z,97415.69
2022-10-07T07:34:33.993Z,97417.94
2022-10-07T07:35:41.195Z,97427.13
2022-10-07T07:36:46.612Z,97425.28
2022-10-07T07:37:48.285Z,97424.09
2022-10-07T07:38:54.498Z,97417.19
2022-10-07T07:39:56.411Z,97429.94
2022-10-07T07:41:03.822Z,97424.81
2022-10-07T07:42:05.330Z,97410.38
2022-10-07T07:43:07.314Z,97428.09
2022-10-07T07:44:11.283Z,97427.03
2022-10-07T07:45:13.166Z,97427.75
2022-10-07T07:46:18.789Z,97413.03
2022-10-07T07:47:20.386Z,97414.84
2022-10-07T07:48:21.745Z,97421.22
2022-10-07T07:49:24.441Z,97423.84
2022-10-07T07:50:27.359Z,97426.69
2022-10-07T07:51:28.888Z,97422.06
2022-10-07T07:52:30.337Z,97415.34
2022-10-07T07:53:34.901Z,97417.22
2022-10-07T08:00:08.949Z,97422.34
2022-10-07T08:01:13.538Z,97433.78
2022-10-07T08:02:15.013Z,97418.50
2022-10-07T08:03:16.396Z,97409.75
2022-10-07T08:04:17.952Z,97399.53
2022-10-07T08:05:23.969Z,97419.81
2022-10-07T08:06:27.884Z,97421.09
2022-10-07T08:07:29.413Z,97420.25
2022-10-07T08:08:31.030Z,97410.44
2022-10-07T08:09:32.366Z,97418.22
2022-10-07T08:10:33.768Z,97413.56
2022-10-07T08:11:35.249Z,97405.91
2022-10-07T08:12:36.752Z,97417.72
2022-10-07T08:13:41.959Z,97417.81
2022-10-07T08:14:43.389Z,97411.56
2022-10-07T08:15:44.787Z,97413.16
2022-10-07T08:16:47.474Z,97409.41
2022-10-07T08:17:50.211Z,97405.00
2022-10-07T08:18:56.446Z,97413.53
2022-10-07T08:19:58.040Z,97398.94
2022-10-07T08:21:01.474Z,97402.03
2022-10-07T08:22:02.984Z,97409.94
2022-10-07T08:23:05.316Z,97404.09
2022-10-07T08:30:54.709Z,97410.16
2022-10-07T08:31:59.615Z,97401.94
2022-10-07T08:33:01.609Z,97397.06
2022-10-07T08:34:04.838Z,97400.16
2022-10-07T08:35:06.509Z,97390.22
2022-10-07T08:36:11.482Z,97381.22
2022-10-07T08:37:12.865Z,97400.88
2022-10-07T08:38:15.666Z,97382.38
2022-10-07T08:39:17.089Z,97401.00
2022-10-07T08:40:18.882Z,97407.13
2022-10-07T08:41:41.265Z,97374.06
2022-10-07T08:48:03.893Z,97404.75
2022-10-07T08:49:13.257Z,97405.59
2022-10-07T08:50:22.583Z,97397.97
2022-10-07T08:51:39.137Z,97381.91
2022-10-07T08:53:03.029Z,97397.28
2022-10-07T09:01:10.628Z,97394.31
2022-10-07T09:02:52.474Z,97383.94
2022-10-07T09:04:12.768Z,97391.47
2022-10-07T09:05:34.070Z,97389.97
2022-10-07T09:06:52.346Z,97376.94
2022-10-07T09:07:57.948Z,97395.31
2022-10-07T09:09:04.723Z,97385.25
2022-10-07T09:10:09.151Z,97390.28
2022-10-07T09:11:20.362Z,97388.16
2022-10-07T09:12:47.167Z,97371.81
2022-10-07T09:14:00.001Z,97374.66
2022-10-07T09:15:03.491Z,97374.56
2022-10-07T09:16:12.006Z,97388.91
2022-10-07T09:17:34.841Z,97392.81
2022-10-07T09:18:44.969Z,97383.19
2022-10-07T09:19:52.628Z,97388.41
2022-10-07T09:20:56.160Z,97354.50
2022-10-07T09:22:05.214Z,97384.44
2022-10-07T09:23:11.612Z,97370.28
2022-10-07T09:24:19.002Z,97371.38
2022-10-07T09:25:27.037Z,97368.28
2022-10-07T09:26:28.545Z,97370.94
2022-10-07T09:27:30.267Z,97365.75
2022-10-07T09:28:33.450Z,97371.41
2022-10-07T09:29:36.467Z,97355.75
2022-10-07T09:30:37.992Z,97365.81
2022-10-07T09:31:40.028Z,97349.06
2022-10-07T09:32:49.326Z,97373.69
2022-10-07T09:33:52.880Z,97355.69
2022-10-07T09:34:54.270Z,97361.53
2022-10-07T09:36:04.104Z,97360.09
2022-10-07T09:37:11.263Z,97362.16
2022-10-07T09:38:16.489Z,97362.09
2022-10-07T09:39:24.489Z,97359.50
2022-10-07T09:40:58.405Z,97351.75
2022-10-07T09:42:01.018Z,97352.03
2022-10-07T09:43:11.592Z,97354.88
2022-10-07T09:44:16.483Z,97352.06
2022-10-07T09:45:36.990Z,97351.72
2022-10-07T09:46:57.660Z,97347.41
2022-10-07T09:48:07.664Z,97341.56
2022-10-07T09:49:31.659Z,97353.09
2022-10-07T09:50:44.658Z,97353.72
2022-10-07T09:52:03.675Z,97347.91
2022-10-07T09:53:21.410Z,97346.00
2022-10-07T09:54:27.532Z,97354.97
2022-10-07T09:55:46.059Z,97353.84
2022-10-07T09:56:47.705Z,97351.69
2022-10-07T09:58:03.614Z,97352.69
2022-10-07T09:59:23.580Z,97340.72
2022-10-07T10:00:26.530Z,97346.25
2022-10-07T10:01:28.077Z,97344.44
2022-10-07T10:02:30.395Z,97339.97
2022-10-07T10:03:35.010Z,97342.97
2022-10-07T10:04:40.159Z,97347.94
2022-10-07T10:05:53.215Z,97348.88
2022-10-07T10:06:58.518Z,97339.13
2022-10-07T10:08:08.322Z,97343.94
2022-10-07T10:09:11.568Z,97341.59
2022-10-07T10:10:21.411Z,97345.72
2022-10-07T10:11:30.516Z,97350.13
2022-10-07T10:12:40.657Z,97347.25
2022-10-07T10:13:47.329Z,97344.72
2022-10-07T10:14:58.339Z,97337.91
2022-10-07T10:16:01.060Z,97339.31
2022-10-07T10:17:04.411Z,97314.59
2022-10-07T10:18:33.612Z,97335.19
2022-10-07T10:19:37.320Z,97320.28
2022-10-07T10:20:43.407Z,97329.84
2022-10-07T10:21:51.450Z,97333.94
2022-10-07T10:22:53.346Z,97329.72
2022-10-07T10:24:18.218Z,97329.31
2022-10-07T10:25:47.443Z,97320.56
2022-10-07T10:26:56.695Z,97331.56
2022-10-07T10:28:04.039Z,97327.09
2022-10-07T10:29:23.691Z,97328.88
2022-10-07T10:30:25.804Z,97322.75
2022-10-07T10:31:58.791Z,97317.44
2022-10-07T10:33:32.367Z,97323.38
2022-10-07T10:35:12.696Z,97323.28
2022-10-07T10:36:23.658Z,97315.78
2022-10-07T10:37:38.111Z,97312.19
2022-10-07T10:38:50.728Z,97303.88
2022-10-07T10:39:57.864Z,97310.59
2022-10-07T10:47:48.466Z,97301.78
2022-10-07T10:49:10.610Z,97297.56
2022-10-07T10:50:27.611Z,97301.44
2022-10-07T10:52:13.401Z,97293.41
2022-10-07T10:59:04.330Z,97288.13
2022-10-07T11:00:12.882Z,97277.41
2022-10-07T11:01:37.177Z,97280.91
2022-10-07T11:02:43.588Z,97282.34
2022-10-07T11:04:14.669Z,97282.22
2022-10-07T11:17:07.553Z,97262.53
2022-10-07T11:18:18.234Z,97217.28
2022-10-07T11:19:22.576Z,97261.69
2022-10-07T11:20:27.666Z,97259.41
2022-10-07T11:21:40.313Z,97259.28
2022-10-07T11:22:53.415Z,97259.91
2022-10-07T11:24:04.421Z,97248.47
2022-10-07T11:25:24.451Z,97242.59
2022-10-07T11:26:34.855Z,97251.69
2022-10-07T11:27:36.624Z,97246.34
2022-10-07T11:28:41.562Z,97227.91
2022-10-07T11:29:49.500Z,97245.91
2022-10-07T11:31:01.351Z,97234.78
2022-10-07T11:32:14.175Z,97228.72
2022-10-07T11:33:23.900Z,97237.75
2022-10-07T11:34:34.918Z,97219.78
2022-10-07T11:35:43.853Z,97223.41
2022-10-07T11:36:54.121Z,97233.22
2022-10-07T11:38:06.119Z,97226.25
2022-10-07T11:39:08.297Z,97232.97
2022-10-07T11:40:09.993Z,97214.97
2022-10-07T11:41:33.361Z,97231.41
2022-10-07T11:42:43.389Z,97226.03
2022-10-07T11:43:49.133Z,97226.38
2022-10-07T11:45:07.912Z,97227.94
2022-10-07T11:46:24.677Z,97227.00
2022-10-07T11:47:51.075Z,97218.91
2022-10-07T11:49:10.924Z,97217.66
2022-10-07T11:50:37.997Z,97215.66
2022-10-07T11:51:58.082Z,97218.25
2022-10-07T11:59:51.462Z,97211.44
2022-10-07T12:01:25.166Z,97209.19
2022-10-07T12:02:29.356Z,97210.19
2022-10-07T12:03:33.720Z,97194.44
2022-10-07T12:04:37.101Z,97190.53
2022-10-07T12:05:38.532Z,97195.38
2022-10-07T12:06:44.005Z,97188.28
2022-10-07T12:08:01.187Z,97197.47
2022-10-07T12:09:41.302Z,97192.25
2022-10-07T12:10:42.681Z,97193.94
2022-10-07T12:11:51.485Z,97189.84
2022-10-07T12:12:57.393Z,97190.09
2022-10-07T12:14:32.604Z,97183.75
2022-10-07T12:15:44.521Z,97177.84
2022-10-07T12:16:55.615Z,97183.88
2022-10-07T12:18:17.572Z,97175.34
2022-10-07T12:19:23.596Z,97175.72
2022-10-07T12:20:34.574Z,97176.41
2022-10-07T12:22:04.185Z,97178.94
2022-10-07T12:23:25.588Z,97168.34
2022-10-07T12:24:28.673Z,97176.44
2022-10-07T12:25:32.277Z,97151.34
2022-10-07T12:26:34.079Z,97170.63
2022-10-07T12:27:36.324Z,97172.66
2022-10-07T12:28:44.581Z,97163.34
2022-10-07T12:29:59.660Z,97165.53
2022-10-07T12:31:23.352Z,97160.38
2022-10-07T12:33:00.601Z,97164.78
2022-10-07T12:34:04.977Z,97165.09
2022-10-07T12:35:34.727Z,97158.94
2022-10-07T12:36:39.090Z,97158.25
2022-10-07T12:37:40.610Z,97160.41
2022-10-07T12:38:41.997Z,97160.56
2022-10-07T12:39:47.026Z,97162.59
2022-10-07T12:47:29.614Z,97159.59
2022-10-07T12:48:39.832Z,97131.22
2022-10-07T12:49:51.924Z,97151.06
2022-10-07T12:50:57.200Z,97142.88
2022-10-07T12:52:08.557Z,97150.50
2022-10-07T12:53:12.100Z,97151.50
2022-10-07T12:54:20.102Z,97148.75
2022-10-07T12:55:37.079Z,97150.94
2022-10-07T12:56:43.054Z,97148.94
2022-10-07T12:57:50.296Z,97148.38
2022-10-07T12:59:24.353Z,97149.50
2022-10-07T13:00:26.061Z,97150.84
2022-10-07T13:02:08.262Z,97146.66
2022-10-07T13:03:45.547Z,97140.63
2022-10-07T13:29:28.349Z,97098.97
2022-10-07T13:30:39.145Z,97108.72
2022-10-07T13:31:40.701Z,97106.72
2022-10-07T13:32:43.034Z,97099.56
2022-10-07T13:33:52.181Z,97097.31
2022-10-07T13:34:53.853Z,97102.19
2022-10-07T13:36:14.366Z,97093.66
2022-10-07T13:37:29.199Z,97099.59
2022-10-07T13:38:30.569Z,97094.63
2022-10-07T13:39:32.026Z,97078.66
2022-10-07T13:40:36.230Z,97104.88
2022-10-07T13:41:39.957Z,97098.44
2022-10-07T13:42:41.418Z,97090.50
2022-10-07T13:43:44.558Z,97090.88
2022-10-07T13:44:46.205Z,97092.03
2022-10-07T13:45:47.653Z,97088.38
2022-10-07T13:46:58.498Z,97096.47
2022-10-07T13:48:00.105Z,97083.59
2022-10-07T13:49:03.380Z,97086.06
2022-10-07T13:50:05.698Z,97076.88
2022-10-07T13:51:07.571Z,97078.53
2022-10-07T13:52:21.493Z,97084.84
2022-10-07T13:53:27.803Z,97078.25
2022-10-07T13:54:31.958Z,97074.41
2022-10-07T13:55:35.388Z,97080.84
2022-10-07T13:56:41.643Z,97086.88
2022-10-07T13:57:44.266Z,97078.94
2022-10-07T13:58:46.204Z,97066.72
2022-10-07T13:59:49.320Z,97084.03
2022-10-07T14:00:50.806Z,97071.06
2022-10-07T14:01:55.194Z,97069.00
2022-10-07T14:02:56.805Z,97072.19
2022-10-07T14:04:22.589Z,97079.88
2022-10-07T14:05:29.943Z,97074.91
2022-10-07T14:06:53.476Z,97068.22
2022-10-07T14:07:58.230Z,97062.19
2022-10-07T14:09:01.132Z,97063.72
2022-10-07T14:10:09.682Z,97072.91
2022-10-07T14:11:21.905Z,97075.03
2022-10-07T14:12:33.416Z,97068.97
2022-10-07T14:13:37.885Z,97064.34
2022-10-07T14:14:42.527Z,97070.59
2022-10-07T14:15:51.279Z,97067.41
2022-10-07T14:23:17.121Z,97057.41
2022-10-07T14:24:20.437Z,97047.78
2022-10-07T14:25:27.863Z,97053.50
2022-10-07T14:26:43.401Z,97049.81
2022-10-07T14:27:53.839Z,97055.16
2022-10-07T14:28:56.935Z,97053.94
2022-10-07T14:29:58.757Z,97040.63
2022-10-07T14:31:25.145Z,97054.53
2022-10-07T14:32:45.569Z,97030.34
2022-10-07T14:34:09.980Z,97047.06
2022-10-07T14:35:20.785Z,97047.50
2022-10-07T14:36:22.695Z,97023.03
2022-10-07T14:37:28.403Z,97045.94
2022-10-07T14:38:32.357Z,97053.63
2022-10-07T14:39:39.741Z,97049.41
2022-10-07T14:40:41.129Z,97060.09
2022-10-07T14:41:42.479Z,97057.03
2022-10-07T14:42:44.754Z,97018.84
2022-10-07T14:43:48.598Z,97054.66
2022-10-07T14:44:50.392Z,97048.41
2022-10-07T14:45:51.930Z,97034.34
2022-10-07T14:47:24.326Z,97037.81
2022-10-07T14:48:25.698Z,97044.19
2022-10-07T14:49:28.247Z,97036.97
2022-10-07T14:50:29.630Z,97044.28
2022-10-07T14:51:31.161Z,97031.81
2022-10-07T14:52:44.558Z,97031.94
2022-10-07T14:54:01.747Z,97028.16
2022-10-07T14:55:15.993Z,97008.97
2022-10-07T14:56:23.970Z,97026.72
2022-10-07T14:57:30.040Z,97027.91
2022-10-07T14:58:31.476Z,97032.84
2022-10-07T15:05:05.292Z,97017.22
2022-10-07T15:06:06.972Z,97014.69
2022-10-07T15:07:09.970Z,97018.31
2022-10-07T15:08:12.163Z,97016.59
2022-10-07T15:09:13.869Z,97004.31
2022-10-07T15:10:20.391Z,97008.66
2022-10-07T15:11:21.899Z,97005.53
2022-10-07T15:12:23.233Z,97000.78
2022-10-07T15:13:24.766Z,96998.09
2022-10-07T15:14:26.192Z,96994.22
2022-10-07T15:15:27.588Z,96999.97
2022-10-07T15:16:29.132Z,96970.97
2022-10-07T15:17:30.513Z,97001.00
2022-10-07T15:18:32.153Z,97000.94
2022-10-07T15:19:33.497Z,97008.44
2022-10-07T15:20:35.216Z,97005.06
2022-10-07T15:21:36.668Z,97004.84
2022-10-07T15:22:41.801Z,96996.72
2022-10-07T15:23:43.181Z,96964.09
2022-10-07T15:24:44.718Z,97003.00
2022-10-07T15:25:46.142Z,96993.94
2022-10-07T15:26:47.615Z,96985.81
2022-10-07T15:27:52.641Z,96979.28
2022-10-07T15:28:56.701Z,96998.06
2022-10-07T15:29:58.417Z,96993.78
2022-10-07T15:31:05.126Z,96985.84
2022-10-07T15:32:08.059Z,96993.69
2022-10-07T15:33:14.426Z,96992.19
2022-10-07T15:34:16.095Z,96988.56
2022-10-07T15:41:06.241Z,96988.63
2022-10-07T15:42:08.406Z,96978.44
2022-10-07T15:43:09.784Z,96975.38
2022-10-07T15:44:19.590Z,96986.34
2022-10-07T15:45:21.200Z,96979.81
2022-10-07T15:46:22.762Z,96981.81
2022-10-07T15:47:24.441Z,96975.81
2022-10-07T15:48:26.707Z,96980.34
2022-10-07T15:49:31.504Z,96986.44
2022-10-07T15:50:33.034Z,96955.25
2022-10-07T15:51:36.216Z,96971.16
2022-10-07T15:52:37.610Z,96977.13
2022-10-07T15:53:38.947Z,96977.88
2022-10-07T15:54:40.870Z,96969.84
2022-10-07T15:55:58.200Z,96974.28
2022-10-07T15:56:59.671Z,96987.16
2022-10-07T15:58:01.004Z,96983.28
2022-10-07T15:59:02.380Z,96979.78
2022-10-07T16:00:05.000Z,96970.28
2022-10-07T16:01:12.178Z,96968.53
2022-10-07T16:02:16.206Z,96972.38
2022-10-07T16:03:17.767Z,96980.06
2022-10-07T16:04:20.312Z,96982.16
2022-10-07T16:05:24.200Z,96968.97
2022-10-07T16:06:32.644Z,96979.50
2022-10-07T16:07:34.037Z,96975.47
2022-10-07T16:08:36.034Z,96981.19
2022-10-07T16:09:38.259Z,96965.25
2022-10-07T16:10:39.744Z,96970.91
2022-10-07T16:11:41.362Z,96964.16
2022-10-07T16:12:42.793Z,96973.94
2022-10-07T16:13:47.020Z,96981.31
2022-10-07T16:14:49.014Z,96973.47
2022-10-07T16:16:04.376Z,96944.31
2022-10-07T16:17:05.763Z,96973.78
2022-10-07T16:18:07.722Z,96973.91
2022-10-07T16:19:11.572Z,96975.16
2022-10-07T16:20:15.326Z,96959.91
2022-10-07T16:21:22.935Z,96965.09
2022-10-07T16:22:24.350Z,96965.63
2022-10-07T16:23:25.708Z,96971.56
2022-10-07T16:24:31.164Z,96966.09
2022-10-07T16:25:35.470Z,96961.44
2022-10-07T16:26:37.435Z,96956.91
2022-10-07T16:27:57.234Z,96956.69
2022-10-07T16:42:03.725Z,96959.66
2022-10-07T16:43:05.203Z,96955.13
2022-10-07T16:44:06.529Z,96957.38
2022-10-07T16:45:08.096Z,96954.75
2022-10-07T16:46:13.876Z,96947.66
2022-10-07T16:47:15.349Z,96948.50
2022-10-07T16:48:17.342Z,96938.28
2022-10-07T16:49:18.749Z,96945.13
2022-10-07T16:50:20.955Z,96950.53
2022-10-07T16:51:30.658Z,96944.50
2022-10-07T16:52:33.224Z,96940.53
2022-10-07T16:59:04.813Z,96953.56
2022-10-07T17:00:07.101Z,96947.75
2022-10-07T17:01:13.632Z,96944.16
2022-10-07T17:02:15.187Z,96951.06
2022-10-07T17:03:16.526Z,96946.75
2022-10-07T17:04:18.285Z,96940.81
2022-10-07T17:05:19.817Z,96944.88
2022-10-07T17:06:23.228Z,96940.31
2022-10-07T17:07:25.022Z,96939.00
2022-10-07T17:08:27.963Z,96941.38
2022-10-07T17:09:29.400Z,96937.91
2022-10-07T17:10:31.286Z,96941.38
2022-10-07T17:11:35.293Z,96938.19
2022-10-07T17:12:37.864Z,96944.28
2022-10-07T17:13:39.381Z,96940.53
2022-10-07T17:14:41.435Z,96951.94
2022-10-07T17:15:42.797Z,96946.19
2022-10-07T17:16:56.161Z,96949.69
2022-10-07T17:17:57.535Z,96955.22
2022-10-07T17:18:58.952Z,96950.06
